Time;durP1;ratioP1;P1;durP2;ratioP2;P2;SDS_P1;SDS_P2;PMS_P1;PMS_P2;Temp;Humidity;BMP_temperature;BMP_pressure;BME280_temperature;BME280_humidity;BME280_pressure;Samples;Min_cycle;Max_cycle;Signal;HPM_P1;HPM_P2
2022/08/18 00:02:18;;;;;;;0.40;0.40;;;23.40;54.00;;;24.07;39.82;94489.28;4980396;28;20324;-78
2022/08/18 00:04:46;;;;;;;0.40;0.40;;;23.40;54.30;;;24.08;39.38;94488.19;5016155;28;20196;-78
2022/08/18 00:07:30;;;;;;;0.30;0.30;;;23.40;54.10;;;24.06;39.77;94493.84;5031603;28;20216;-79
2022/08/18 00:09:59;;;;;;;0.30;0.30;;;23.40;54.90;;;24.04;39.82;94487.97;5032600;28;20678;-79
2022/08/18 00:12:36;;;;;;;0.40;0.40;;;23.40;54.30;;;24.02;39.37;94497.38;5016798;28;20221;-79
2022/08/18 00:15:09;;;;;;;0.40;0.40;;;23.30;54.80;;;24.00;39.70;94502.22;5011205;28;20212;-78
2022/08/18 00:17:36;;;;;;;0.30;0.30;;;23.30;54.70;;;23.97;39.66;94506.28;5028867;28;20636;-78
2022/08/18 00:20:10;;;;;;;0.30;0.30;;;23.30;54.60;;;23.88;39.71;94487.34;4996438;28;20200;-79
2022/08/18 00:22:41;;;;;;;0.40;0.40;;;23.30;55.00;;;23.91;39.75;94500.19;5025851;28;20720;-79
2022/08/18 00:25:10;;;;;;;0.30;0.30;;;23.20;54.70;;;23.89;40.07;94504.19;5032732;28;20196;-79
2022/08/18 00:27:40;;;;;;;0.40;0.40;;;23.20;54.80;;;23.85;40.25;94498.63;5015599;28;20594;-79
2022/08/18 00:30:18;;;;;;;0.30;0.30;;;23.20;54.90;;;23.81;39.98;94495.75;5032301;28;20231;-79
2022/08/18 00:32:54;;;;;;;0.50;0.50;;;23.20;55.10;;;23.77;40.69;94500.06;5021155;28;20259;-79
2022/08/18 00:35:35;;;;;;;0.40;0.40;;;23.10;55.40;;;23.75;40.50;94501.44;5015882;28;20321;-79
2022/08/18 00:38:06;;;;;;;0.50;0.50;;;23.10;55.30;;;23.71;40.47;94503.09;5032160;28;20215;-78
2022/08/18 00:40:45;;;;;;;0.50;0.50;;;23.10;55.50;;;23.66;40.15;94494.00;5011155;28;20201;-78
2022/08/18 00:43:20;;;;;;;0.30;0.30;;;23.00;55.60;;;23.63;40.61;94497.28;5011593;28;20263;-78
2022/08/18 00:45:48;;;;;;;0.40;0.40;;;23.00;55.80;;;23.58;40.25;94491.16;5012185;28;20283;-78
2022/08/18 00:48:15;;;;;;;0.40;0.40;;;22.90;55.40;;;23.55;40.24;94499.78;5012125;28;20219;-79
2022/08/18 00:50:53;;;;;;;0.32;0.32;;;22.90;55.60;;;23.51;40.79;94496.88;4993835;28;20225;-77
2022/08/18 00:53:48;;;;;;;0.40;0.40;;;22.90;56.00;;;23.44;41.18;94488.38;4995572;28;20192;-78
2022/08/18 00:56:27;;;;;;;0.43;0.43;;;22.80;55.30;;;23.37;41.39;94486.03;4998938;28;20706;-78
2022/08/18 00:59:06;;;;;;;0.40;0.40;;;22.80;56.40;;;23.33;41.32;94488.47;5006883;28;20214;-78
2022/08/18 01:01:36;;;;;;;0.50;0.50;;;22.70;56.40;;;23.28;41.35;94487.75;4997262;28;20597;-78
2022/08/18 01:04:40;;;;;;;0.60;0.60;;;22.70;56.20;;;23.21;41.32;94489.94;5016125;28;20298;-78
2022/08/18 01:07:19;;;;;;;0.40;0.40;;;22.70;55.90;;;23.21;41.59;94493.41;4995139;28;20315;-78
2022/08/18 01:09:50;;;;;;;0.40;0.40;;;22.60;56.40;;;23.21;41.79;94495.28;5015118;28;20569;-78
2022/08/18 01:12:18;;;;;;;0.45;0.45;;;22.60;56.80;;;23.22;41.64;94491.50;5029775;28;20213;-78
2022/08/18 01:15:06;;;;;;;0.40;0.40;;;22.60;56.60;;;23.25;41.94;94493.63;5017819;28;20637;-78
2022/08/18 01:23:44;;;;;;;0.30;0.30;;;22.70;57.10;;;23.37;42.09;94493.28;5031476;28;20616;-78
2022/08/18 01:26:12;;;;;;;0.40;0.40;;;22.70;57.10;;;23.41;42.08;94489.75;5031302;28;20221;-78
2022/08/18 01:28:43;;;;;;;0.43;0.43;;;22.70;57.30;;;23.47;42.07;94487.78;5023506;28;20193;-78
2022/08/18 01:31:29;;;;;;;0.40;0.40;;;22.70;57.40;;;23.50;42.21;94481.88;5013041;28;20269;-78
2022/08/18 01:33:56;;;;;;;0.50;0.50;;;22.80;57.70;;;23.56;41.99;94474.59;5014792;28;20232;-78
2022/08/18 01:36:24;;;;;;;0.40;0.40;;;22.90;57.60;;;23.57;41.83;94477.00;5017614;28;20628;-79
2022/08/18 01:38:52;;;;;;;0.30;0.30;;;22.90;57.60;;;23.64;42.22;94476.63;5002851;28;20290;-78
2022/08/18 01:41:21;;;;;;;0.30;0.30;;;22.90;57.60;;;23.66;42.47;94472.59;5021187;28;20216;-78
2022/08/18 01:44:01;;;;;;;0.30;0.30;;;23.00;57.80;;;23.71;42.40;94473.63;5027133;28;20661;-79
2022/08/18 01:46:32;;;;;;;0.30;0.30;;;23.00;58.00;;;23.75;42.36;94467.41;5018679;28;20239;-77
2022/08/18 01:49:02;;;;;;;0.40;0.40;;;23.10;57.90;;;23.78;42.22;94471.41;5011347;28;20207;-78
2022/08/18 01:51:31;;;;;;;0.40;0.40;;;23.10;57.80;;;23.80;42.44;94467.34;5003637;28;20280;-78
2022/08/18 01:54:12;;;;;;;0.30;0.30;;;23.10;58.10;;;23.83;42.83;94469.44;5028379;28;20192;-79
2022/08/18 01:56:41;;;;;;;0.30;0.30;;;23.20;58.00;;;23.86;42.63;94453.91;5004104;28;20224;-79
2022/08/18 01:59:12;;;;;;;0.30;0.30;;;23.20;57.90;;;23.89;42.73;94456.00;5016504;28;20212;-79
2022/08/18 02:01:44;;;;;;;0.30;0.30;;;23.20;58.00;;;23.93;42.63;94457.06;5002618;28;20644;-78
2022/08/18 02:04:17;;;;;;;0.30;0.30;;;23.30;58.30;;;23.95;42.63;94454.91;5001319;28;20207;-79
2022/08/18 02:07:07;;;;;;;0.40;0.40;;;23.30;58.10;;;23.98;42.81;94451.63;5015898;28;20216;-79
2022/08/18 02:09:37;;;;;;;0.32;0.32;;;23.30;58.30;;;23.98;42.66;94444.38;5013799;28;20216;-78
2022/08/18 02:12:06;;;;;;;0.40;0.40;;;23.40;58.10;;;24.04;42.64;94449.69;4992778;28;20747;-78
2022/08/18 02:14:34;;;;;;;0.38;0.38;;;23.40;58.20;;;24.06;42.90;94447.50;5009340;28;20454;-79
2022/08/18 02:17:06;;;;;;;0.30;0.30;;;23.40;58.30;;;24.06;43.09;94440.28;4976666;28;20311;-78
2022/08/18 02:19:37;;;;;;;0.40;0.40;;;23.40;58.50;;;24.07;43.26;94439.19;5008857;28;20197;-78
2022/08/18 02:22:06;;;;;;;0.30;0.30;;;23.40;58.50;;;24.08;43.17;94442.66;5025208;28;20217;-78
2022/08/18 02:24:35;;;;;;;0.38;0.38;;;23.40;58.50;;;24.07;43.54;94441.06;4991520;28;20794;-78
2022/08/18 02:27:02;;;;;;;0.40;0.40;;;23.50;58.60;;;24.09;43.27;94438.91;5009077;28;20214;-78
2022/08/18 02:29:29;;;;;;;0.30;0.30;;;23.50;58.50;;;24.07;43.24;94433.03;5024759;28;20223;-78
2022/08/18 02:31:57;;;;;;;0.40;0.40;;;23.50;58.60;;;24.09;42.96;94437.00;5012283;28;20299;-78
2022/08/18 02:34:24;;;;;;;0.50;0.50;;;23.50;58.60;;;24.12;43.18;94435.63;5012551;28;20200;-79
2022/08/18 02:36:52;;;;;;;0.30;0.30;;;23.50;58.80;;;24.11;43.24;94424.13;5007093;28;20229;-78
2022/08/18 02:39:20;;;;;;;0.40;0.40;;;23.50;58.80;;;24.14;43.13;94436.94;5016336;28;20211;-79
2022/08/18 02:41:47;;;;;;;0.32;0.32;;;23.60;58.80;;;24.14;43.08;94434.28;5029428;28;20247;-80
2022/08/18 02:44:14;;;;;;;0.30;0.30;;;23.50;58.60;;;24.12;43.21;94427.59;5030443;28;20204;-78
2022/08/18 02:46:42;;;;;;;0.32;0.32;;;23.60;58.80;;;24.14;43.54;94433.47;5015489;28;20244;-78
2022/08/18 02:49:09;;;;;;;0.30;0.30;;;23.50;58.90;;;24.15;43.25;94440.41;4994551;28;20197;-78
2022/08/18 02:51:37;;;;;;;0.32;0.32;;;23.60;59.00;;;24.14;43.77;94428.09;4995887;28;20256;-78
2022/08/18 02:54:10;;;;;;;0.30;0.30;;;23.60;59.00;;;24.13;43.42;94427.31;4998133;28;20192;-79
2022/08/18 02:56:37;;;;;;;0.40;0.40;;;23.50;59.00;;;24.13;43.54;94419.28;5025111;28;20223;-78
2022/08/18 02:59:13;;;;;;;0.40;0.40;;;23.50;59.00;;;24.14;43.69;94434.28;5033967;28;20202;-78
2022/08/18 03:01:45;;;;;;;0.35;0.35;;;23.50;59.30;;;24.10;43.88;94429.78;5033835;28;20230;-78
2022/08/18 03:04:18;;;;;;;0.40;0.40;;;23.50;59.20;;;24.11;43.53;94420.66;5016346;28;20202;-79
2022/08/18 03:06:48;;;;;;;0.25;0.25;;;23.50;59.10;;;24.06;43.46;94418.03;5014745;28;20216;-78
2022/08/18 03:09:17;;;;;;;0.30;0.30;;;23.50;59.00;;;24.07;43.70;94419.63;5013941;28;20227;-79
2022/08/18 03:11:45;;;;;;;0.30;0.30;;;23.50;59.10;;;24.05;43.55;94421.81;5013882;28;20266;-78
2022/08/18 03:14:14;;;;;;;0.38;0.38;;;23.50;59.00;;;24.01;43.94;94421.59;4997670;28;20205;-78
2022/08/18 03:16:45;;;;;;;0.30;0.30;;;23.40;59.10;;;23.98;43.80;94422.94;5012154;28;20239;-78
2022/08/18 03:19:28;;;;;;;0.50;0.50;;;23.40;59.40;;;23.94;44.17;94415.81;5018318;28;20207;-79
2022/08/18 03:21:58;;;;;;;0.40;0.40;;;23.40;59.50;;;23.89;43.74;94415.81;5033328;28;20743;-79
2022/08/18 03:24:30;;;;;;;0.30;0.30;;;23.30;59.30;;;23.86;43.78;94417.19;5016012;28;20196;-79
2022/08/18 03:27:00;;;;;;;0.40;0.40;;;23.20;59.30;;;23.78;43.83;94421.31;5001105;28;20693;-79
2022/08/18 03:29:27;;;;;;;0.38;0.38;;;23.20;59.40;;;23.75;44.02;94424.56;5034350;28;20200;-78
2022/08/18 03:32:01;;;;;;;0.30;0.30;;;23.10;59.30;;;23.68;43.86;94418.78;5030507;28;20289;-79
2022/08/18 03:34:29;;;;;;;0.30;0.30;;;23.10;59.40;;;23.62;44.45;94422.56;5021770;28;20279;-79
2022/08/18 03:36:56;;;;;;;0.30;0.30;;;23.10;59.70;;;23.54;44.07;94426.69;4995313;28;20231;-79
2022/08/18 03:39:23;;;;;;;0.50;0.50;;;23.00;59.80;;;23.46;43.84;94424.63;5016649;28;20574;-79
2022/08/18 03:41:53;;;;;;;0.30;0.30;;;22.90;59.40;;;23.41;44.09;94430.06;5016951;28;20237;-79
2022/08/18 03:44:35;;;;;;;0.45;0.45;;;22.80;59.70;;;23.30;44.27;94430.19;5026494;28;20223;-79
2022/08/18 03:47:08;;;;;;;0.30;0.30;;;22.80;59.90;;;23.23;44.72;94426.22;5003485;28;20586;-78
2022/08/18 03:49:36;;;;;;;0.40;0.40;;;22.70;59.90;;;23.16;44.27;94422.00;4996903;28;20208;-78
2022/08/18 03:52:08;;;;;;;0.60;0.60;;;22.60;59.80;;;23.09;44.73;94432.22;5012986;28;20691;-78
2022/08/18 03:54:37;;;;;;;0.40;0.40;;;22.60;60.30;;;23.03;45.02;94425.31;5011106;28;20244;-79
2022/08/18 03:57:09;;;;;;;0.45;0.45;;;22.50;60.10;;;22.97;44.64;94429.13;5012988;28;20244;-78
2022/08/18 03:59:40;;;;;;;0.40;0.40;;;22.40;60.50;;;22.90;45.12;94426.78;4996755;28;20298;-79
2022/08/18 04:02:07;;;;;;;0.40;0.40;;;22.40;60.30;;;22.83;44.89;94431.66;5026269;28;20220;-80
2022/08/18 04:04:35;;;;;;;0.50;0.50;;;22.30;60.40;;;22.78;45.31;94423.72;5022342;28;20209;-80
2022/08/18 04:07:13;;;;;;;0.40;0.40;;;22.20;60.40;;;22.74;45.15;94428.00;5031969;28;20595;-79
2022/08/18 04:09:40;;;;;;;0.45;0.45;;;22.20;60.50;;;22.65;45.63;94425.91;5023282;28;20208;-80
2022/08/18 04:12:12;;;;;;;0.38;0.38;;;22.10;60.70;;;22.62;45.62;94433.69;4980478;28;20220;-80
2022/08/18 04:14:46;;;;;;;0.38;0.38;;;22.10;60.80;;;22.55;45.35;94421.47;5012891;28;20293;-80
2022/08/18 04:17:23;;;;;;;0.40;0.40;;;22.00;60.70;;;22.53;45.60;94428.16;5008083;28;20230;-79
2022/08/18 04:19:55;;;;;;;0.50;0.50;;;22.00;61.20;;;22.50;45.62;94436.75;5015542;28;20211;-79
2022/08/18 04:22:23;;;;;;;0.50;0.50;;;21.90;61.20;;;22.47;46.04;94438.13;5031589;28;20369;-79
2022/08/18 04:24:52;;;;;;;0.50;0.50;;;21.90;61.10;;;22.46;46.18;94449.06;4996163;28;20195;-80
2022/08/18 04:27:20;;;;;;;0.40;0.40;;;21.90;61.20;;;22.44;46.02;94440.53;5012500;28;20219;-80
2022/08/18 04:29:48;;;;;;;0.40;0.40;;;21.90;61.30;;;22.44;46.25;94445.88;4999420;28;20541;-80
2022/08/18 04:32:16;;;;;;;0.43;0.43;;;21.90;61.50;;;22.43;45.90;94455.75;5031955;28;20227;-79
2022/08/18 04:34:43;;;;;;;0.32;0.32;;;21.90;61.50;;;22.45;46.45;94463.50;5016361;28;20211;-80
2022/08/18 04:37:11;;;;;;;0.60;0.60;;;21.90;61.60;;;22.48;46.24;94462.94;5032053;28;20224;-79
2022/08/18 04:39:38;;;;;;;0.40;0.40;;;21.90;61.80;;;22.51;46.58;94465.06;5024221;28;20231;-80
2022/08/18 04:42:06;;;;;;;0.50;0.50;;;21.90;61.80;;;22.54;46.73;94470.66;5004919;28;20238;-78
2022/08/18 04:44:38;;;;;;;0.40;0.40;;;21.90;61.80;;;22.62;46.71;94471.13;5011485;28;20548;-80
2022/08/18 04:47:07;;;;;;;0.40;0.40;;;22.00;62.10;;;22.69;46.63;94483.13;5014694;28;20304;-79
2022/08/18 04:49:36;;;;;;;0.30;0.30;;;22.00;62.20;;;22.78;46.45;94487.88;5015004;28;20202;-79
2022/08/18 04:55:09;;;;;;;0.40;0.40;;;22.20;62.10;;;22.94;46.64;94500.03;5015224;28;20226;-80
2022/08/18 04:57:36;;;;;;;0.40;0.40;;;22.30;62.20;;;23.05;46.60;94506.09;5010005;28;20359;-79
2022/08/18 05:00:07;;;;;;;0.32;0.32;;;22.40;62.10;;;23.20;46.93;94512.44;5010583;28;20684;-79
2022/08/18 05:02:34;;;;;;;0.45;0.45;;;22.50;62.50;;;23.32;46.90;94518.19;5027751;28;20317;-79
2022/08/18 05:05:03;;;;;;;0.30;0.30;;;22.60;62.20;;;23.44;46.38;94509.78;5028710;28;20205;-79
2022/08/18 05:07:31;;;;;;;0.35;0.35;;;22.70;62.10;;;23.54;46.50;94511.56;5021137;28;20208;-79
2022/08/18 05:09:58;;;;;;;0.35;0.35;;;22.80;62.10;;;23.62;46.89;94509.06;5005913;28;20208;-80
2022/08/18 05:12:25;;;;;;;0.30;0.30;;;22.90;62.30;;;23.64;46.63;94500.75;4986429;28;20226;-78
2022/08/18 05:14:55;;;;;;;0.30;0.30;;;23.00;62.20;;;23.75;46.49;94512.13;5020195;28;20200;-79
2022/08/18 05:17:27;;;;;;;0.30;0.30;;;23.10;62.10;;;23.79;46.50;94507.78;5014159;28;20226;-79
2022/08/18 05:19:58;;;;;;;0.30;0.30;;;23.10;62.10;;;23.80;46.39;94507.53;4987666;28;20208;-79
2022/08/18 05:22:29;;;;;;;0.43;0.43;;;23.20;61.90;;;23.83;46.56;94508.84;5017563;28;20255;-79
2022/08/18 05:24:59;;;;;;;0.40;0.40;;;23.20;61.80;;;23.84;46.39;94505.06;5020578;28;20207;-80
2022/08/18 05:27:32;;;;;;;0.30;0.30;;;23.30;61.90;;;23.85;46.64;94497.81;5013795;28;20220;-78
2022/08/18 05:29:59;;;;;;;0.40;0.40;;;23.30;62.00;;;23.84;46.29;94497.03;5005465;28;20200;-79
2022/08/18 05:32:30;;;;;;;0.40;0.40;;;23.30;61.90;;;23.84;46.46;94494.38;5020614;28;20685;-79
2022/08/18 05:35:31;;;;;;;0.40;0.40;;;23.30;61.90;;;23.83;46.38;94487.41;5031388;28;20249;-79
2022/08/18 05:38:42;;;;;;;0.35;0.35;;;23.30;61.90;;;23.82;46.60;94483.91;5027999;28;20732;-79
2022/08/18 05:41:34;;;;;;;0.30;0.30;;;23.40;61.80;;;23.83;45.93;94493.56;5039249;28;20220;-79
2022/08/18 05:44:02;;;;;;;0.30;0.30;;;23.40;62.10;;;23.84;46.67;94491.69;5008516;28;20682;-79
2022/08/18 05:46:54;;;;;;;0.30;0.30;;;23.40;62.00;;;23.82;46.84;94491.94;5010844;28;20699;-79
2022/08/18 05:49:25;;;;;;;0.50;0.50;;;23.40;62.30;;;23.89;46.96;94504.19;5002866;28;20287;-79
2022/08/18 05:51:59;;;;;;;0.38;0.38;;;23.40;62.10;;;23.90;46.92;94511.97;5019861;28;20220;-80
2022/08/18 05:57:27;;;;;;;0.38;0.38;;;23.40;62.30;;;23.95;46.56;94503.91;5014700;28;20314;-79
2022/08/18 05:59:54;;;;;;;0.38;0.38;;;23.40;62.20;;;23.95;46.49;94506.56;5029203;28;20207;-79
2022/08/18 06:02:44;;;;;;;0.38;0.38;;;23.40;62.00;;;23.98;46.87;94508.66;5011183;28;20208;-79
2022/08/18 06:05:26;;;;;;;0.32;0.32;;;23.40;62.10;;;24.05;46.67;94504.88;5009479;28;20197;-80
2022/08/18 06:08:01;;;;;;;0.60;0.60;;;23.50;62.40;;;24.09;46.85;94514.69;5009134;28;20244;-79
2022/08/18 06:10:30;;;;;;;0.40;0.40;;;23.50;62.30;;;24.13;46.88;94514.94;5025544;28;20212;-79
2022/08/18 06:13:00;;;;;;;0.30;0.30;;;23.60;62.20;;;24.18;46.71;94506.84;5011442;28;20239;-79
2022/08/18 06:16:09;;;;;;;0.50;0.50;;;23.60;62.40;;;24.20;46.93;94499.28;5027420;28;20193;-80
2022/08/18 06:18:49;;;;;;;0.30;0.30;;;23.60;62.00;;;24.23;47.08;94504.09;5011289;28;20200;-80
2022/08/18 06:21:42;;;;;;;0.40;0.40;;;23.70;62.10;;;24.29;46.82;94502.13;5010011;28;20668;-80
2022/08/18 06:24:44;;;;;;;0.35;0.35;;;23.70;62.10;;;24.35;46.91;94505.53;5009010;28;20721;-79
2022/08/18 06:27:39;;;;;;;0.30;0.30;;;23.80;62.30;;;24.40;46.70;94508.13;5014641;28;20503;-80
2022/08/18 06:30:31;;;;;;;0.32;0.32;;;23.80;62.10;;;24.46;46.82;94515.03;5006623;28;20288;-79
2022/08/18 06:33:44;;;;;;;0.30;0.30;;;23.90;62.10;;;24.51;46.38;94506.94;5008655;28;20203;-79
2022/08/18 06:36:32;;;;;;;0.40;0.40;;;24.00;62.10;;;24.61;47.01;94514.03;5031908;28;20220;-79
2022/08/18 06:39:22;;;;;;;0.30;0.30;;;24.00;62.10;;;24.67;46.94;94523.63;5028387;28;20184;-79
2022/08/18 06:41:52;;;;;;;0.40;0.40;;;24.10;62.30;;;24.75;46.90;94527.53;5024824;28;20258;-78
2022/08/18 06:44:37;;;;;;;0.40;0.40;;;24.20;62.10;;;24.82;46.46;94524.50;5017583;28;20227;-79
2022/08/18 06:47:39;;;;;;;0.30;0.30;;;24.20;62.00;;;24.89;46.60;94523.03;5048805;28;20227;-79
2022/08/18 06:50:19;;;;;;;0.40;0.40;;;24.30;62.00;;;24.95;46.69;94523.75;5034687;28;20214;-78
2022/08/18 06:53:06;;;;;;;0.38;0.38;;;24.40;62.10;;;25.10;46.50;94547.63;5015652;28;20212;-79
2022/08/18 06:55:53;;;;;;;0.30;0.30;;;24.50;62.00;;;25.21;46.31;94542.91;5032788;28;20303;-80
2022/08/18 06:58:29;;;;;;;0.38;0.38;;;24.70;62.90;;;25.33;46.54;94555.88;5017778;28;20195;-79
2022/08/18 07:01:05;;;;;;;0.30;0.30;;;24.80;62.10;;;25.46;46.17;94550.84;5048249;28;20244;-80
2022/08/18 07:03:35;;;;;;;0.22;0.22;;;24.90;61.90;;;25.59;46.26;94560.03;5015719;28;20243;-79
2022/08/18 07:06:04;;;;;;;0.35;0.35;;;25.00;61.70;;;25.70;46.09;94562.22;5031940;28;20228;-79
2022/08/18 07:08:42;;;;;;;0.32;0.32;;;25.10;61.60;;;25.80;46.08;94555.88;5033798;28;20212;-78
2022/08/18 07:11:33;;;;;;;0.30;0.30;;;25.30;61.60;;;25.92;46.07;94559.97;5033688;28;20699;-79
2022/08/18 07:14:20;;;;;;;0.40;0.40;;;25.40;61.50;;;26.04;45.84;94560.28;5033664;28;20210;-79
2022/08/18 07:16:48;;;;;;;0.50;0.50;;;25.50;61.40;;;26.17;45.53;94559.50;5034717;28;20289;-79
2022/08/18 07:19:30;;;;;;;0.22;0.22;;;25.70;61.40;;;26.29;45.63;94555.50;5018455;28;20220;-80
2022/08/18 07:22:15;;;;;;;0.30;0.30;;;25.70;60.90;;;26.40;45.28;94561.47;5033647;28;20596;-79
2022/08/18 07:24:49;;;;;;;0.30;0.30;;;25.90;61.00;;;26.50;45.64;94561.25;5016728;28;20641;-79
2022/08/18 07:27:39;;;;;;;0.20;0.20;;;26.00;60.70;;;26.63;45.26;94568.50;5024302;28;20222;-78
2022/08/18 07:30:29;;;;;;;0.30;0.30;;;26.10;60.60;;;26.76;44.67;94558.06;5041682;28;20242;-78
2022/08/18 07:33:23;;;;;;;0.30;0.30;;;26.30;60.30;;;26.87;44.42;94556.72;5013431;28;20314;-80
2022/08/18 07:35:55;;;;;;;0.30;0.30;;;26.40;60.20;;;26.99;44.33;94567.72;5011734;28;20207;-79
2022/08/18 07:38:55;;;;;;;0.20;0.20;;;26.50;60.90;;;27.10;44.43;94579.06;5012108;28;20276;-79
2022/08/18 07:41:42;;;;;;;0.25;0.25;;;26.60;59.90;;;27.17;43.99;94567.84;4996291;28;20258;-80
2022/08/18 07:44:27;;;;;;;0.20;0.20;;;26.70;59.60;;;27.27;43.79;94570.31;4996475;28;20710;-80
2022/08/18 07:47:02;;;;;;;0.30;0.30;;;26.80;59.30;;;27.36;43.60;94567.66;4995584;28;20322;-79
2022/08/18 07:49:36;;;;;;;0.30;0.30;;;26.90;59.00;;;27.44;43.75;94566.16;5011621;28;20614;-80
2022/08/18 07:52:38;;;;;;;0.20;0.20;;;27.00;58.90;;;27.53;43.66;94553.53;5011734;28;20674;-79
2022/08/18 07:55:29;;;;;;;0.30;0.30;;;27.10;58.90;;;27.61;43.66;94547.41;5011834;28;20200;-80
2022/08/18 07:58:38;;;;;;;0.20;0.20;;;27.20;58.90;;;27.73;43.35;94552.22;5012713;28;20321;-80
2022/08/18 08:01:31;;;;;;;0.30;0.30;;;27.30;58.60;;;27.85;43.29;94548.16;5012895;28;20224;-79
2022/08/18 08:04:15;;;;;;;0.30;0.30;;;27.40;58.60;;;27.93;42.96;94552.78;4996824;28;20291;-79
2022/08/18 08:07:20;;;;;;;0.20;0.20;;;27.50;58.10;;;28.07;43.28;94550.00;5029396;28;20221;-78
2022/08/18 08:10:12;;;;;;;0.30;0.30;;;27.60;58.20;;;28.19;42.68;94552.91;5026773;28;20290;-79
2022/08/18 08:12:53;;;;;;;0.30;0.30;;;27.70;57.70;;;28.31;42.53;94555.00;5030507;28;20240;-80
2022/08/18 08:15:53;;;;;;;0.30;0.30;;;27.90;57.30;;;28.41;41.99;94532.31;5031614;28;20192;-80
2022/08/18 08:18:27;;;;;;;0.30;0.30;;;28.00;57.20;;;28.55;42.19;94529.47;5031170;28;20553;-80
2022/08/18 08:21:00;;;;;;;0.30;0.30;;;28.10;57.10;;;28.65;41.88;94521.09;5031985;28;20234;-79
2022/08/18 08:23:59;;;;;;;0.38;0.38;;;28.20;56.70;;;28.75;41.92;94510.00;5032527;28;20247;-79
2022/08/18 08:26:52;;;;;;;0.30;0.30;;;28.30;56.50;;;28.86;41.14;94512.41;5031017;28;20215;-79
2022/08/18 08:29:47;;;;;;;0.20;0.20;;;28.40;56.40;;;28.97;40.82;94504.78;5030752;28;20655;-77
2022/08/18 08:32:34;;;;;;;0.28;0.28;;;28.50;56.00;;;29.06;41.11;94500.94;5037795;28;20579;-78
2022/08/18 08:35:33;;;;;;;0.30;0.30;;;28.60;55.60;;;29.14;40.89;94495.81;5030493;28;20275;-80
2022/08/18 08:38:47;;;;;;;0.20;0.20;;;28.70;55.00;;;29.26;40.96;94473.56;5030651;28;20224;-80
2022/08/18 08:41:52;;;;;;;0.30;0.30;;;28.80;55.50;;;29.38;40.35;94462.91;5026898;28;20246;-80
2022/08/18 08:45:22;;;;;;;0.20;0.20;;;28.90;54.20;;;29.52;40.22;94458.09;5016659;28;20204;-79
2022/08/18 08:48:01;;;;;;;0.20;0.20;;;29.10;54.80;;;29.69;39.56;94451.03;5030646;28;20224;-79
2022/08/18 08:50:59;;;;;;;0.32;0.32;;;29.30;54.20;;;29.87;39.74;94440.94;5016183;28;20205;-80
2022/08/18 08:53:52;;;;;;;0.30;0.30;;;29.40;54.00;;;30.05;39.13;94440.84;4998112;28;20212;-79
2022/08/18 08:56:30;;;;;;;0.20;0.20;;;29.60;53.60;;;30.24;38.95;94443.13;4993701;28;20594;-80
2022/08/18 08:59:08;;;;;;;0.20;0.20;;;29.80;54.10;;;30.45;39.40;94443.13;4994714;28;20214;-80
2022/08/18 09:01:55;;;;;;;0.20;0.20;;;30.00;54.00;;;30.66;39.17;94441.25;5020881;28;20776;-80
2022/08/18 09:04:49;;;;;;;0.25;0.25;;;30.10;53.70;;;30.89;39.32;94442.78;5024999;28;20196;-80
2022/08/18 09:08:14;;;;;;;0.30;0.30;;;30.40;53.40;;;31.12;39.07;94435.09;5011777;28;20286;-80
2022/08/18 09:11:17;;;;;;;0.30;0.30;;;30.70;53.10;;;31.38;38.34;94450.28;5028259;28;20318;-79
2022/08/18 09:14:24;;;;;;;0.30;0.30;;;30.90;52.70;;;31.56;38.47;94456.28;5020600;28;20204;-80
2022/08/18 09:17:32;;;;;;;0.30;0.30;;;31.10;52.20;;;31.73;37.81;94447.19;4991655;28;20363;-78
2022/08/18 09:20:11;;;;;;;0.30;0.30;;;31.30;52.40;;;31.89;37.97;94448.06;5012286;28;20224;-78
2022/08/18 09:23:21;;;;;;;0.30;0.30;;;31.50;51.80;;;32.01;37.93;94455.41;4995536;28;20259;-78
2022/08/18 09:25:55;;;;;;;0.20;0.20;;;31.60;51.20;;;32.08;37.19;94452.91;5017980;28;20274;-79
2022/08/18 09:28:56;;;;;;;0.20;0.20;;;31.70;50.50;;;32.16;37.02;94464.78;5004450;28;20197;-79
2022/08/18 09:31:28;;;;;;;0.20;0.20;;;31.90;50.90;;;32.28;36.78;94477.56;5004216;28;20220;-80
2022/08/18 09:34:18;;;;;;;0.28;0.28;;;31.90;50.20;;;32.38;36.84;94479.03;5012970;28;20205;-80
2022/08/18 09:37:11;;;;;;;0.20;0.20;;;32.10;50.00;;;32.43;36.00;94478.78;5002809;28;20214;-80
2022/08/18 09:43:10;;;;;;;0.20;0.20;;;32.30;48.80;;;32.52;35.55;94462.34;5006535;28;20221;-79
2022/08/18 09:45:58;;;;;;;0.20;0.20;;;32.30;48.90;;;32.49;35.24;94452.19;5036812;28;20656;-80
2022/08/18 09:48:40;;;;;;;0.25;0.25;;;32.30;48.80;;;32.44;35.46;94439.66;5020904;28;20191;-79
2022/08/18 09:51:39;;;;;;;0.20;0.20;;;32.30;48.80;;;32.37;35.58;94432.09;5019588;28;20209;-80
2022/08/18 09:54:12;;;;;;;0.30;0.30;;;32.30;48.80;;;32.36;35.33;94435.13;4993586;28;20633;-80
2022/08/18 09:56:48;;;;;;;0.20;0.20;;;32.30;50.00;;;32.36;35.25;94438.66;4991053;28;20234;-78
2022/08/18 09:59:35;;;;;;;0.30;0.30;;;32.20;48.70;;;32.37;35.53;94444.88;5006797;28;20695;-79
2022/08/18 10:02:09;;;;;;;0.20;0.20;;;32.20;48.80;;;32.41;34.72;94449.28;5010218;28;20287;-78
2022/08/18 10:04:50;;;;;;;0.20;0.20;;;32.20;48.90;;;32.41;34.84;94435.69;5009893;28;20205;-80
2022/08/18 10:07:20;;;;;;;0.20;0.20;;;32.20;48.80;;;32.46;35.32;94450.16;5002678;28;20220;-80
2022/08/18 10:10:24;;;;;;;0.28;0.28;;;32.20;48.80;;;32.48;35.52;94435.13;5005652;28;20806;-79
2022/08/18 10:13:41;;;;;;;0.28;0.28;;;32.20;48.80;;;32.54;35.20;94428.31;4994253;28;20236;-78
2022/08/18 10:16:57;;;;;;;0.20;0.20;;;32.30;48.80;;;32.54;35.10;94419.38;5006708;28;20238;-78
2022/08/18 10:20:03;;;;;;;0.30;0.30;;;32.30;48.80;;;32.59;35.24;94427.25;4999513;28;20223;-79
2022/08/18 10:22:37;;;;;;;0.30;0.30;;;32.30;48.90;;;32.65;34.88;94414.25;4986979;28;20221;-79
2022/08/18 10:25:10;;;;;;;0.30;0.30;;;32.30;48.80;;;32.70;35.07;94424.84;5001435;28;20196;-79
2022/08/18 10:27:55;;;;;;;0.30;0.30;;;32.30;48.80;;;32.72;34.30;94419.88;4980404;28;20706;-79
2022/08/18 10:30:45;;;;;;;0.28;0.28;;;32.30;48.50;;;32.74;34.60;94428.47;4986165;28;20576;-79
2022/08/18 10:34:12;;;;;;;0.30;0.30;;;32.40;48.10;;;32.75;34.62;94427.31;4998212;28;20192;-79
2022/08/18 10:36:56;;;;;;;0.20;0.20;;;32.40;48.20;;;32.78;33.98;94423.16;5012377;28;20323;-79
2022/08/18 10:39:37;;;;;;;0.30;0.30;;;32.50;47.60;;;32.83;34.59;94420.19;4992894;28;20193;-80
2022/08/18 10:43:07;;;;;;;0.20;0.20;;;32.50;47.70;;;32.83;34.26;94423.69;5004719;28;20717;-79
2022/08/18 10:45:56;;;;;;;0.20;0.20;;;32.50;47.90;;;32.92;34.19;94428.97;5005057;28;20393;-78
2022/08/18 10:48:57;;;;;;;0.20;0.20;;;32.60;47.80;;;32.99;33.94;94422.94;4997429;28;20212;-79
2022/08/18 10:51:38;;;;;;;0.30;0.30;;;32.60;47.40;;;33.03;34.31;94431.97;5013649;28;20244;-78
2022/08/18 10:55:01;;;;;;;0.20;0.20;;;32.60;47.40;;;33.02;34.05;94420.31;5022936;28;20272;-80
2022/08/18 10:58:09;;;;;;;0.20;0.20;;;32.70;47.70;;;33.08;33.79;94422.78;5016301;28;20228;-79
2022/08/18 11:00:47;;;;;;;0.20;0.20;;;32.70;47.10;;;33.13;33.56;94420.59;5011407;28;20285;-80
2022/08/18 11:03:46;;;;;;;0.40;0.40;;;32.70;46.90;;;33.16;33.93;94417.19;5023973;28;20687;-80
2022/08/18 11:06:25;;;;;;;0.30;0.30;;;32.80;47.00;;;33.23;33.60;94434.81;5011945;28;20217;-79
2022/08/18 11:08:59;;;;;;;0.20;0.20;;;32.80;47.20;;;33.29;33.58;94436.94;5011478;28;20297;-80
2022/08/18 11:11:55;;;;;;;0.30;0.30;;;32.90;47.00;;;33.34;33.89;94433.19;4994736;28;20217;-80
2022/08/18 11:14:45;;;;;;;0.25;0.25;;;32.90;47.00;;;33.42;33.24;94439.59;5010723;28;20211;-80
2022/08/18 11:17:46;;;;;;;0.20;0.20;;;33.00;46.40;;;33.45;33.14;94433.47;5015429;28;20583;-79
2022/08/18 11:20:19;;;;;;;0.30;0.30;;;33.00;46.50;;;33.48;33.06;94421.88;5015967;28;20214;-80
2022/08/18 11:22:59;;;;;;;0.30;0.30;;;33.10;46.00;;;33.51;32.99;94427.41;5011955;28;20633;-79
2022/08/18 11:25:30;;;;;;;0.30;0.30;;;33.20;45.80;;;33.56;32.95;94426.34;5013853;28;20340;-79
2022/08/18 11:27:58;;;;;;;0.20;0.20;;;33.20;46.00;;;33.61;32.68;94425.31;5012557;28;20699;-80
2022/08/18 11:30:33;;;;;;;0.30;0.30;;;33.20;45.80;;;33.65;32.59;94421.50;5015367;28;20252;-80